createdAt,value
2023-02-08T00:02:30.070Z,6.43
2023-02-08T00:05:17.995Z,13.13
2023-02-08T00:08:03.664Z,7.13
2023-02-08T00:10:50.013Z,11.40
2023-02-08T00:13:35.496Z,8.30
2023-02-08T00:16:21.037Z,8.65
2023-02-08T00:19:06.542Z,6.80
2023-02-08T00:21:52.345Z,5.90
2023-02-08T00:24:38.181Z,18.48
2023-02-08T00:27:24.119Z,6.85
2023-02-08T00:30:10.467Z,8.15
2023-02-08T00:32:56.064Z,15.00
2023-02-08T00:35:41.512Z,9.35
2023-02-08T00:38:28.695Z,8.07
2023-02-08T00:41:14.276Z,15.80
2023-02-08T00:43:59.665Z,8.38
2023-02-08T00:46:45.287Z,12.57
2023-02-08T00:49:31.189Z,8.05
2023-02-08T00:52:17.465Z,12.38
2023-02-08T00:55:04.484Z,10.07
2023-02-08T00:57:50.118Z,9.63
2023-02-08T01:00:35.712Z,6.22
2023-02-08T01:03:23.836Z,4.72
2023-02-08T01:06:17.464Z,7.82
2023-02-08T01:09:03.530Z,5.18
2023-02-08T01:11:49.184Z,10.60
2023-02-08T01:14:34.715Z,5.13
2023-02-08T01:17:20.246Z,4.65
2023-02-08T01:20:06.625Z,6.82
2023-02-08T01:22:52.180Z,5.13
2023-02-08T01:25:37.912Z,6.93
2023-02-08T01:28:23.416Z,4.85
2023-02-08T01:31:17.561Z,8.23
2023-02-08T01:34:05.298Z,8.23
2023-02-08T01:36:50.866Z,10.13
2023-02-08T01:39:36.431Z,7.07
2023-02-08T01:42:22.341Z,7.70
2023-02-08T01:45:17.128Z,12.05
2023-02-08T01:48:14.037Z,7.10
2023-02-08T01:51:09.826Z,21.25
2023-02-08T01:53:57.964Z,9.68
2023-02-08T01:56:45.517Z,12.65
2023-02-08T01:59:45.966Z,9.68
2023-02-08T02:02:32.417Z,11.35
2023-02-08T02:05:20.262Z,6.65
2023-02-08T02:08:06.559Z,7.43
2023-02-08T02:10:52.110Z,14.45
2023-02-08T02:13:38.027Z,6.10
2023-02-08T02:16:23.682Z,11.73
2023-02-08T02:19:31.682Z,7.38
2023-02-08T02:23:25.277Z,5.82
2023-02-08T02:26:43.867Z,9.50
2023-02-08T02:34:23.880Z,10.27
2023-02-08T02:37:30.753Z,13.52
2023-02-08T02:41:06.899Z,7.03
2023-02-08T02:43:57.208Z,6.80
2023-02-08T02:46:56.604Z,7.90
2023-02-08T02:50:21.718Z,13.00
2023-02-08T02:53:34.406Z,7.15
2023-02-08T02:56:37.100Z,10.98
2023-02-08T02:59:23.226Z,10.60
2023-02-08T03:02:09.810Z,5.93
2023-02-08T03:04:57.631Z,10.77
2023-02-08T03:08:24.209Z,8.52
2023-02-08T03:11:35.638Z,15.23
2023-02-08T03:18:06.184Z,8.07
2023-02-08T03:21:18.725Z,20.65
2023-02-08T03:24:30.979Z,16.00
2023-02-08T03:28:08.194Z,14.13
2023-02-08T03:31:14.467Z,18.08
2023-02-08T03:34:16.505Z,11.05
2023-02-08T03:37:10.415Z,15.10
2023-02-08T03:40:40.584Z,8.43
2023-02-08T03:43:40.378Z,14.57
2023-02-08T03:46:34.224Z,14.18
2023-02-08T03:49:31.412Z,12.80
2023-02-08T03:52:17.852Z,19.42
2023-02-08T03:55:25.144Z,7.88
2023-02-08T03:58:26.607Z,17.13
2023-02-08T04:01:43.326Z,16.75
2023-02-08T04:04:47.690Z,7.05
2023-02-08T04:07:33.635Z,8.55
2023-02-08T04:10:19.667Z,5.78
2023-02-08T04:13:05.387Z,15.55
2023-02-08T04:15:51.097Z,19.02
2023-02-08T04:18:36.886Z,14.02
2023-02-08T04:21:23.029Z,14.07
2023-02-08T04:24:09.265Z,11.52
2023-02-08T04:26:54.787Z,9.77
2023-02-08T04:29:40.780Z,14.02
2023-02-08T04:32:26.317Z,5.65
2023-02-08T04:35:11.672Z,12.80
2023-02-08T04:37:57.324Z,24.02
2023-02-08T04:40:42.723Z,13.63
2023-02-08T04:43:28.835Z,7.18
2023-02-08T04:46:14.757Z,6.70
2023-02-08T04:49:00.310Z,17.40
2023-02-08T04:51:45.847Z,11.82
2023-02-08T04:54:31.187Z,12.40
2023-02-08T04:57:16.691Z,8.70
2023-02-08T05:00:02.440Z,13.82
2023-02-08T05:02:47.725Z,7.45
2023-02-08T05:05:33.449Z,14.32
2023-02-08T05:08:18.970Z,9.07
2023-02-08T05:11:05.060Z,15.77
2023-02-08T05:13:51.320Z,12.27
2023-02-08T05:16:36.793Z,8.57
2023-02-08T05:19:22.132Z,10.13
2023-02-08T05:22:07.388Z,12.15
2023-02-08T05:24:52.788Z,10.80
2023-02-08T05:27:38.238Z,9.00
2023-02-08T05:30:23.925Z,14.90
2023-02-08T05:33:09.716Z,6.53
2023-02-08T05:35:55.089Z,16.35
2023-02-08T05:38:40.691Z,13.27
2023-02-08T05:41:26.348Z,25.27
2023-02-08T05:44:11.740Z,15.45
2023-02-08T05:46:57.449Z,16.75
2023-02-08T05:49:42.913Z,18.63
2023-02-08T05:52:28.309Z,11.30
2023-02-08T05:55:13.903Z,14.63
2023-02-08T05:57:59.323Z,13.32
2023-02-08T06:00:45.418Z,24.10
2023-02-08T06:03:30.791Z,19.70
2023-02-08T06:06:16.375Z,13.82
2023-02-08T06:09:02.638Z,11.55
2023-02-08T06:11:48.282Z,13.05
2023-02-08T06:14:33.714Z,11.70
2023-02-08T06:17:19.213Z,16.92
2023-02-08T06:20:05.795Z,15.30
2023-02-08T06:22:51.294Z,15.13
2023-02-08T06:25:37.286Z,33.63
2023-02-08T06:28:23.012Z,22.88
2023-02-08T06:31:08.461Z,17.35
2023-02-08T06:33:54.063Z,22.98
2023-02-08T06:36:39.525Z,25.23
2023-02-08T06:39:25.117Z,14.43
2023-02-08T06:42:11.930Z,18.67
2023-02-08T06:44:57.381Z,13.85
2023-02-08T06:47:43.435Z,17.02
2023-02-08T06:50:29.142Z,18.73
2023-02-08T06:53:14.394Z,19.63
2023-02-08T06:55:59.934Z,13.07
2023-02-08T06:58:45.543Z,11.13
2023-02-08T07:01:31.024Z,13.13
2023-02-08T07:04:16.389Z,26.23
2023-02-08T07:07:01.860Z,13.20
2023-02-08T07:09:47.551Z,28.25
2023-02-08T07:12:37.478Z,16.23
2023-02-08T07:15:22.987Z,21.50
2023-02-08T07:18:08.280Z,20.92
2023-02-08T07:20:53.968Z,16.05
2023-02-08T07:23:40.538Z,22.52
2023-02-08T07:26:26.222Z,13.23
2023-02-08T07:29:11.615Z,12.23
2023-02-08T07:31:59.822Z,15.00
2023-02-08T07:34:45.452Z,10.27
2023-02-08T07:37:30.923Z,13.90
2023-02-08T07:40:16.743Z,13.43
2023-02-08T07:43:02.446Z,15.75
2023-02-08T07:45:47.927Z,21.58
2023-02-08T07:48:34.119Z,20.60
2023-02-08T07:51:19.755Z,26.05
2023-02-08T07:54:05.606Z,8.43
2023-02-08T07:56:51.219Z,6.75
2023-02-08T07:59:36.656Z,6.13
2023-02-08T08:02:22.215Z,19.55
2023-02-08T08:05:09.630Z,15.13
2023-02-08T08:07:55.288Z,8.85
2023-02-08T08:10:42.057Z,21.63
2023-02-08T08:13:27.839Z,19.40
2023-02-08T08:16:14.119Z,24.27
2023-02-08T08:18:59.795Z,20.20
2023-02-08T08:21:45.414Z,13.00
2023-02-08T08:24:30.848Z,20.20
2023-02-08T08:27:16.322Z,21.83
2023-02-08T08:30:02.277Z,20.70
2023-02-08T08:32:48.386Z,16.35
2023-02-08T08:35:33.752Z,9.80
2023-02-08T08:38:19.236Z,16.75
2023-02-08T08:41:11.877Z,23.83
2023-02-08T08:43:57.460Z,13.40
2023-02-08T08:46:43.191Z,26.90
2023-02-08T08:49:29.568Z,25.92
2023-02-08T08:52:15.754Z,10.02
2023-02-08T08:55:01.422Z,18.55
2023-02-08T08:57:46.902Z,26.93
2023-02-08T09:00:32.290Z,18.52
2023-02-08T09:03:18.000Z,21.83
2023-02-08T09:06:03.435Z,19.73
2023-02-08T09:08:51.642Z,19.23
2023-02-08T09:11:37.603Z,14.50
2023-02-08T09:14:22.950Z,11.43
2023-02-08T09:17:08.732Z,21.23
2023-02-08T09:19:54.423Z,15.68
2023-02-08T09:22:39.919Z,25.98
2023-02-08T09:25:25.596Z,13.40
2023-02-08T09:48:25.719Z,21.65
2023-02-08T09:51:41.401Z,17.85
2023-02-08T09:54:41.599Z,23.10
2023-02-08T09:57:33.342Z,15.90
2023-02-08T10:03:42.110Z,22.67
2023-02-08T10:06:27.980Z,15.68
2023-02-08T10:09:16.313Z,13.32
2023-02-08T10:12:32.556Z,18.60
2023-02-08T10:15:52.043Z,16.65
2023-02-08T10:18:56.398Z,17.35
2023-02-08T10:22:21.760Z,17.27
2023-02-08T10:25:52.290Z,15.27
2023-02-08T10:29:14.314Z,8.85
2023-02-08T10:35:39.432Z,16.42
2023-02-08T10:38:45.250Z,10.68
2023-02-08T10:41:36.830Z,11.68
2023-02-08T10:44:41.588Z,10.88
2023-02-08T10:47:45.630Z,6.95
2023-02-08T10:50:41.679Z,14.63
2023-02-08T10:53:28.370Z,9.77
2023-02-08T10:56:56.362Z,11.30
2023-02-08T11:00:07.728Z,9.15
2023-02-08T11:02:54.930Z,13.73
2023-02-08T11:05:40.702Z,6.53
2023-02-08T11:08:27.751Z,11.82
2023-02-08T11:11:13.289Z,10.02
2023-02-08T11:14:46.639Z,12.63
2023-02-08T11:17:33.374Z,15.90
2023-02-08T11:20:40.466Z,14.45
2023-02-08T11:23:40.062Z,13.95
2023-02-08T11:26:37.563Z,13.13
2023-02-08T11:29:30.146Z,12.35
2023-02-08T11:32:20.612Z,9.50
2023-02-08T11:35:18.714Z,10.93
2023-02-08T11:38:04.294Z,9.30
2023-02-08T11:40:49.696Z,12.55
2023-02-08T11:43:36.614Z,17.13
2023-02-08T11:46:28.884Z,8.82
2023-02-08T11:49:30.373Z,7.80
2023-02-08T11:52:32.654Z,8.10
2023-02-08T11:55:30.901Z,5.28
2023-02-08T11:58:26.308Z,6.55
2023-02-08T12:01:22.089Z,8.02
2023-02-08T12:04:13.271Z,4.75
2023-02-08T12:07:22.539Z,8.55
2023-02-08T12:10:57.106Z,8.98
2023-02-08T12:14:02.053Z,4.13
2023-02-08T12:17:21.038Z,6.00
2023-02-08T12:20:45.456Z,7.30
2023-02-08T12:23:52.411Z,4.93
2023-02-08T12:27:21.634Z,6.65
2023-02-08T12:30:27.849Z,8.55
2023-02-08T12:33:58.340Z,5.22
2023-02-08T12:37:08.041Z,8.30
2023-02-08T12:40:59.216Z,4.95
2023-02-08T12:44:09.808Z,6.07
2023-02-08T12:47:29.119Z,3.22
2023-02-08T12:50:44.906Z,6.93
2023-02-08T12:54:16.320Z,6.70
2023-02-08T12:57:03.853Z,4.15
2023-02-08T12:59:59.455Z,10.68
2023-02-08T13:03:27.479Z,6.13
2023-02-08T13:06:27.430Z,8.18
2023-02-08T13:09:35.763Z,3.72
2023-02-08T13:12:28.109Z,8.10
2023-02-08T13:15:30.941Z,3.63
2023-02-08T13:18:27.970Z,3.00
2023-02-08T13:21:21.312Z,3.55
2023-02-08T13:25:06.944Z,2.58
2023-02-08T13:27:54.003Z,3.70
2023-02-08T13:30:40.933Z,4.80
2023-02-08T13:33:55.583Z,6.38
2023-02-08T13:36:57.748Z,4.72
2023-02-08T13:39:45.108Z,3.85
2023-02-08T13:42:48.961Z,4.35
2023-02-08T13:45:38.553Z,2.85
2023-02-08T13:48:24.200Z,3.17
2023-02-08T13:51:32.590Z,9.02
2023-02-08T13:54:18.265Z,4.38
2023-02-08T13:57:44.336Z,2.30
2023-02-08T14:00:55.848Z,2.70
2023-02-08T14:03:41.817Z,1.83
2023-02-08T14:06:31.025Z,9.43
2023-02-08T14:09:51.603Z,5.97
2023-02-08T14:13:07.752Z,3.10
2023-02-08T14:16:34.146Z,3.63
2023-02-08T14:19:23.688Z,1.73
2023-02-08T14:22:12.206Z,2.45
2023-02-08T14:25:25.970Z,9.57
2023-02-08T14:28:32.991Z,4.80
2023-02-08T14:31:19.002Z,2.78
2023-02-08T14:34:04.842Z,2.20
2023-02-08T14:37:05.261Z,2.13
2023-02-08T14:40:23.627Z,3.03
2023-02-08T14:43:19.383Z,2.42
2023-02-08T14:46:38.819Z,2.55
2023-02-08T14:49:27.609Z,3.30
2023-02-08T14:52:24.941Z,3.70
2023-02-08T14:55:21.775Z,3.28
2023-02-08T14:58:15.034Z,3.67
2023-02-08T15:01:18.968Z,3.60
2023-02-08T15:04:05.214Z,3.75
2023-02-08T15:07:19.865Z,3.60
2023-02-08T15:10:14.076Z,3.00
2023-02-08T15:13:05.730Z,5.00
2023-02-08T15:18:46.246Z,4.50
2023-02-08T15:21:33.123Z,4.28
2023-02-08T15:24:23.735Z,4.35
2023-02-08T15:27:32.949Z,5.68
2023-02-08T15:30:39.727Z,11.98
2023-02-08T15:33:26.457Z,10.10
2023-02-08T15:36:38.606Z,4.93
2023-02-08T15:39:37.689Z,8.43
2023-02-08T15:42:32.703Z,7.50
2023-02-08T15:45:28.665Z,7.75
2023-02-08T15:48:14.212Z,8.02
2023-02-08T15:51:01.216Z,8.02
2023-02-08T15:53:53.552Z,11.10
2023-02-08T15:56:42.225Z,9.20
2023-02-08T15:59:33.498Z,5.93
2023-02-08T16:02:32.640Z,8.13
2023-02-08T16:05:25.514Z,8.40
2023-02-08T16:08:24.990Z,13.30
2023-02-08T16:11:24.389Z,10.93
2023-02-08T16:14:18.397Z,10.57
2023-02-08T16:17:03.922Z,6.63
2023-02-08T16:19:52.529Z,15.43
2023-02-08T16:22:38.696Z,7.53
2023-02-08T16:25:38.011Z,9.07
2023-02-08T16:28:32.707Z,15.77
2023-02-08T16:31:24.530Z,14.35
2023-02-08T16:34:18.330Z,12.07
2023-02-08T16:37:26.004Z,14.68
2023-02-08T16:40:53.796Z,12.93
2023-02-08T16:43:43.050Z,10.32
2023-02-08T16:46:28.969Z,16.02
2023-02-08T16:49:14.445Z,20.38
2023-02-08T16:52:00.400Z,16.33
2023-02-08T16:54:46.227Z,16.63
2023-02-08T16:57:44.483Z,19.00
2023-02-08T17:00:35.155Z,13.60
2023-02-08T17:03:20.514Z,12.32
2023-02-08T17:06:07.290Z,19.80
2023-02-08T17:08:52.888Z,20.73
2023-02-08T17:11:39.178Z,19.55
2023-02-08T17:14:24.693Z,13.70
2023-02-08T17:17:10.631Z,11.95
2023-02-08T17:19:56.137Z,18.45
2023-02-08T17:22:41.577Z,24.05
2023-02-08T17:25:29.473Z,13.65
2023-02-08T17:28:20.372Z,12.40
2023-02-08T17:31:06.009Z,20.42
2023-02-08T17:33:52.271Z,18.40
2023-02-08T17:36:37.963Z,17.70
2023-02-08T17:39:23.349Z,13.52
2023-02-08T17:42:08.635Z,22.10
2023-02-08T17:44:53.855Z,19.45
2023-02-08T17:47:39.184Z,26.08
2023-02-08T17:50:24.496Z,29.55
2023-02-08T17:53:10.043Z,25.92
2023-02-08T17:55:55.409Z,27.40
2023-02-08T17:58:42.722Z,23.95
2023-02-08T18:01:28.741Z,22.60
2023-02-08T18:04:14.561Z,22.48
2023-02-08T18:06:59.965Z,32.53
2023-02-08T18:09:45.414Z,18.50
2023-02-08T18:12:30.805Z,13.98
2023-02-08T18:15:21.747Z,21.70
2023-02-08T18:18:07.179Z,12.70
2023-02-08T18:20:52.625Z,34.15
2023-02-08T18:23:38.309Z,26.30
2023-02-08T18:26:25.052Z,18.80
2023-02-08T18:29:11.112Z,16.02
2023-02-08T18:31:57.133Z,18.02
2023-02-08T18:34:42.750Z,23.33
2023-02-08T18:37:28.175Z,12.60
2023-02-08T18:40:13.525Z,30.90
2023-02-08T18:42:58.929Z,28.02
2023-02-08T18:45:44.666Z,21.00
2023-02-08T18:48:30.747Z,27.65
2023-02-08T18:51:18.960Z,15.90
2023-02-08T18:54:04.744Z,20.17
2023-02-08T18:56:52.894Z,34.53
2023-02-08T18:59:39.156Z,35.58
2023-02-08T19:02:25.086Z,16.25
2023-02-08T19:05:11.062Z,30.15
2023-02-08T19:07:56.580Z,19.33
2023-02-08T19:10:43.530Z,25.48
2023-02-08T19:13:29.550Z,14.68
2023-02-08T19:16:18.359Z,25.52
2023-02-08T19:19:06.975Z,17.23
2023-02-08T19:21:52.641Z,20.90
2023-02-08T19:24:39.415Z,51.55
2023-02-08T19:27:25.520Z,23.23
2023-02-08T19:30:12.020Z,30.38
2023-02-08T19:32:57.771Z,38.20
2023-02-08T19:35:46.740Z,32.03
2023-02-08T19:38:32.373Z,48.38
2023-02-08T19:41:24.701Z,52.75
2023-02-08T19:44:16.513Z,50.75
2023-02-08T19:47:02.375Z,50.28
2023-02-08T19:49:48.196Z,66.88
2023-02-08T19:52:34.112Z,64.03
2023-02-08T19:55:19.747Z,53.95
2023-02-08T19:58:05.785Z,52.38
2023-02-08T20:00:52.453Z,28.10
2023-02-08T20:03:38.419Z,68.55
2023-02-08T20:06:35.925Z,40.70
2023-02-08T20:09:21.927Z,64.78
2023-02-08T20:12:07.477Z,69.55
2023-02-08T20:14:53.611Z,50.75
2023-02-08T20:17:39.192Z,36.58
2023-02-08T20:20:24.846Z,62.25
2023-02-08T20:23:22.429Z,52.13
2023-02-08T20:26:27.264Z,29.77
2023-02-08T20:29:14.169Z,51.63
2023-02-08T20:32:00.215Z,50.28
2023-02-08T20:34:54.118Z,26.40
2023-02-08T20:37:44.942Z,26.08
2023-02-08T20:40:30.440Z,21.77
2023-02-08T20:43:16.136Z,60.60
2023-02-08T20:46:15.662Z,46.10
2023-02-08T20:49:05.119Z,39.60
2023-02-08T20:51:53.375Z,33.20
2023-02-08T20:54:39.461Z,61.10
2023-02-08T20:57:25.427Z,68.05
2023-02-08T21:00:12.480Z,55.88
2023-02-08T21:02:57.956Z,67.05
2023-02-08T21:05:44.105Z,33.28
2023-02-08T21:08:29.526Z,92.15
2023-02-08T21:11:14.872Z,32.85
2023-02-08T21:14:01.243Z,73.55
2023-02-08T21:16:57.919Z,70.72
2023-02-08T21:19:43.591Z,67.25
2023-02-08T21:22:28.959Z,63.83
2023-02-08T21:25:14.487Z,58.85
2023-02-08T21:28:00.011Z,46.60
2023-02-08T21:30:46.002Z,49.90
2023-02-08T21:33:32.004Z,61.22
2023-02-08T21:36:24.836Z,61.08
2023-02-08T21:39:10.310Z,18.00
2023-02-08T21:41:55.585Z,58.72
2023-02-08T21:44:41.279Z,48.53
2023-02-08T21:47:26.645Z,60.78
2023-02-08T21:50:12.148Z,45.85
2023-02-08T21:52:57.621Z,50.95
2023-02-08T21:55:49.328Z,57.13
2023-02-08T21:58:34.855Z,56.00
2023-02-08T22:01:20.414Z,55.75
2023-02-08T22:04:05.807Z,26.23
2023-02-08T22:06:51.686Z,79.20
2023-02-08T22:09:37.348Z,60.45
2023-02-08T22:12:23.732Z,57.17
2023-02-08T22:15:17.011Z,61.20
2023-02-08T22:18:03.581Z,49.88
2023-02-08T22:20:52.878Z,54.47
2023-02-08T22:23:38.381Z,67.25
2023-02-08T22:26:24.238Z,57.72
2023-02-08T22:29:10.553Z,41.80
2023-02-08T22:31:56.208Z,52.95
2023-02-08T22:34:46.437Z,38.45
2023-02-08T22:37:34.453Z,52.13
2023-02-08T22:40:20.642Z,22.88
2023-02-08T22:43:06.376Z,53.70
2023-02-08T22:45:59.377Z,65.78
2023-02-08T22:48:45.380Z,54.88
2023-02-08T22:51:30.637Z,20.95
2023-02-08T22:54:15.967Z,35.13
2023-02-08T22:57:01.432Z,67.63
2023-02-08T22:59:46.903Z,61.38
2023-02-08T23:02:32.516Z,38.13
2023-02-08T23:05:18.360Z,57.30
2023-02-08T23:08:04.246Z,46.95
2023-02-08T23:10:49.838Z,46.92
2023-02-08T23:13:35.539Z,45.53
2023-02-08T23:16:21.451Z,33.47
2023-02-08T23:19:07.279Z,58.95
2023-02-08T23:21:53.067Z,55.72
2023-02-08T23:24:38.852Z,65.85
2023-02-08T23:27:24.026Z,59.08
2023-02-08T23:30:11.090Z,19.55
2023-02-08T23:32:56.751Z,44.67
2023-02-08T23:35:42.647Z,38.42
2023-02-08T23:38:28.194Z,67.30
2023-02-08T23:41:22.686Z,49.30
2023-02-08T23:44:08.032Z,52.00
2023-02-08T23:46:53.476Z,48.90
2023-02-08T23:49:38.944Z,39.83
2023-02-08T23:52:24.320Z,20.27
2023-02-08T23:55:10.056Z,42.88
2023-02-08T23:57:55.625Z,49.85
